Seadream 1 — C6PW8 — position and weather

sailwx.info

Track history (hours):
 
Tides and Currents Weather Stations Pressure Air Temp Water Temp Dewpoint Dewpoint Depression Visibility Wind Speed Wind Dir Waves Ship Positions

Seadream 1

Last reported at 2018-Jan-19 04:52 UTC. Time now 2018-Jan-19 09:36 UTC.
Position N 17°30' W 062°23'.

Length 105 m; draft 4.3 m.

Type: Ship. MMSI: 308908000.

Date/timePositionNaut miles runAvg speedWind from/ knotsBaromVisibWave heightAir tempDewpointWater temp
2018-Jan-19 04:52N 17°30' W 062°23'2 5.8
2018-Jan-19 04:27N 17°28' W 062°21'3 5.8
2018-Jan-19 04:00N 17°27' W 062°19'3 5.7
2018-Jan-19 03:30N 17°25' W 062°16'3 5.6
2018-Jan-19 03:00N 17°23' W 062°14'3 5.7
2018-Jan-19 02:30N 17°21' W 062°12'3 5.6
2018-Jan-19 02:01N 17°20' W 062°10'3 5.7
2018-Jan-19 01:31N 17°18' W 062°07'3 5.8
2018-Jan-19 01:01N 17°16' W 062°05'3 5.9
2018-Jan-19 00:31N 17°14' W 062°02'3 5.9
2018-Jan-19 00:00N 17°13' W 061°60'3 6.1
2018-Jan-18 23:30N 17°11' W 061°57'3 6.5
2018-Jan-18 23:00N 17°09' W 061°55'3 6.8
2018-Jan-18 22:30N 17°07' W 061°51'0 0.8
2018-Jan-18 21:58N 17°07' W 061°51'0 0.0
2018-Jan-18 21:28N 17°07' W 061°51'0 0.0
2018-Jan-18 20:59N 17°07' W 061°51'0 0.0
2018-Jan-18 20:29N 17°07' W 061°51'0 0.0
2018-Jan-18 19:59N 17°07' W 061°51'0 0.0
2018-Jan-18 19:30N 17°07' W 061°51'0 0.0
2018-Jan-18 19:00N 17°07' W 061°51'0 0.0
2018-Jan-18 18:30N 17°07' W 061°51'0 0.0
2018-Jan-18 17:55N 17°07' W 061°51'0 0.0
2018-Jan-18 17:28N 17°07' W 061°51'0 0.0
2018-Jan-18 16:58N 17°07' W 061°51'0 0.0
2018-Jan-18 16:29N 17°07' W 061°51'0 0.0
2018-Jan-18 15:59N 17°07' W 061°51'0 0.0
2018-Jan-18 15:29N 17°07' W 061°51'0 0.0
2018-Jan-18 15:00N 17°07' W 061°51'0 0.0
2018-Jan-18 14:30N 17°07' W 061°51'0 0.0
2018-Jan-18 14:00N 17°07' W 061°51'0 0.0
2018-Jan-18 13:28N 17°07' W 061°51'0 0.0
2018-Jan-18 12:58N 17°07' W 061°51'0 0.0
2018-Jan-18 12:28N 17°07' W 061°51'0 0.2
2018-Jan-18 12:01N 17°07' W 061°51'3 5.4
2018-Jan-18 11:30N 17°08' W 061°54'4 7.9
2018-Jan-18 11:01N 17°11' W 061°57'4 8.4
2018-Jan-18 10:31N 17°13' W 062°00'4 8.4
2018-Jan-18 10:00N 17°16' W 062°04'4 8.4
2018-Jan-18 09:30N 17°18' W 062°07'4 8.6
2018-Jan-18 09:00N 17°21' W 062°11'5 9.1
2018-Jan-18 08:31N 17°24' W 062°15'5 9.7
2018-Jan-18 08:00N 17°27' W 062°19'5 9.7
2018-Jan-18 07:30N 17°30' W 062°23'5 9.8
2018-Jan-18 07:00N 17°33' W 062°27'5 9.7
2018-Jan-18 06:29N 17°36' W 062°31'  
2018-Jan-12 14:59N 17°07' W 061°51'0 0.0
2018-Jan-12 14:30N 17°07' W 061°51'0 0.3
2018-Jan-12 14:01N 17°07' W 061°51'2 4.4
2018-Jan-12 13:31N 17°08' W 061°53'510.7
2018-Jan-12 13:00N 17°04' W 061°57'611.6
2018-Jan-12 12:30N 16°60' W 061°53'611.2
2018-Jan-12 12:01N 16°60' W 061°47'3 5.7
2018-Jan-12 11:31N 16°57' W 061°47'5 9.2
2018-Jan-12 11:01N 16°53' W 061°48'5 9.1
2018-Jan-12 10:31N 16°48' W 061°49'5 9.1
2018-Jan-12 10:00N 16°44' W 061°50'4 9.0
2018-Jan-12 09:30N 16°39' W 061°51'5 9.2
2018-Jan-12 09:01N 16°35' W 061°51'5 9.1
2018-Jan-12 08:30N 16°30' W 061°51'4 8.7
2018-Jan-12 08:00N 16°26' W 061°51'4 8.8
2018-Jan-12 07:30N 16°21' W 061°51'4 8.9
2018-Jan-12 07:00N 16°17' W 061°51'5 9.1
2018-Jan-12 06:30N 16°12' W 061°51'2 3.5
2018-Jan-12 06:00N 16°11' W 061°50'1 1.6
2018-Jan-12 05:30N 16°10' W 061°50'5 8.0
2018-Jan-12 04:51N 16°05' W 061°49'3 7.7
2018-Jan-12 04:28N 16°02' W 061°48'4 7.6
2018-Jan-12 04:00N 15°59' W 061°46'4 7.6
2018-Jan-12 03:29N 15°56' W 061°43'1 0.1
2018-Jan-11 10:40N 15°55' W 061°43'1 6.6
2018-Jan-11 10:31N 15°56' W 061°43'3 6.8
2018-Jan-11 10:00N 15°58' W 061°46'3 6.9
2018-Jan-11 09:30N 16°01' W 061°48'7 7.0
2018-Jan-11 08:34N 16°06' W 061°53'0 7.5
2018-Jan-11 08:30N 16°06' W 061°53'6 7.6
2018-Jan-11 07:46N 16°11' W 061°57'2 7.5
2018-Jan-11 07:29N 16°12' W 061°58'4 7.5
2018-Jan-11 07:00N 16°15' W 062°00'4 8.6
2018-Jan-11 06:31N 16°18' W 062°04'4 8.5
2018-Jan-11 06:00N 16°21' W 062°06'4 8.4
2018-Jan-11 05:30N 16°24' W 062°09'4 8.3
2018-Jan-11 05:01N 16°27' W 062°12'4 7.8
2018-Jan-11 04:31N 16°30' W 062°15'4 7.7
2018-Jan-11 04:00N 16°33' W 062°18'4 6.9
2018-Jan-11 03:30N 16°36' W 062°20'4 7.2
2018-Jan-11 03:00N 16°39' W 062°22'4 7.3
2018-Jan-11 02:31N 16°42' W 062°25'4 7.5
2018-Jan-11 02:01N 16°45' W 062°27'10 7.6
2018-Jan-11 00:41N 16°53' W 062°33'2 7.9
2018-Jan-11 00:27N 16°54' W 062°34'4 7.9
2018-Jan-10 23:57N 16°57' W 062°36'16 0.6
2018-Jan-09 22:48N 17°13' W 062°41'3 9.0
2018-Jan-09 22:27N 17°16' W 062°42'3 0.2
2018-Jan-09 11:47N 17°16' W 062°44'12 2.6
2018-Jan-09 07:03N 17°25' W 062°54'110.2
2018-Jan-09 07:00N 17°25' W 062°54'10 9.0
2018-Jan-09 05:53N 17°35' W 062°57'3 7.0
2018-Jan-09 05:30N 17°37' W 062°58'4 7.2
2018-Jan-09 04:59N 17°40' W 063°00'  
Track history (hours):
 
Tides and Currents Weather Stations Pressure Air Temp Water Temp Dewpoint Dewpoint Depression Visibility Wind Speed Wind Dir Waves Ship Positions

Seadream 1

Last reported at 2018-Jan-19 04:52 UTC. Time now 2018-Jan-19 09:36 UTC.
Position N 17°30' W 062°23'.

Length 105 m; draft 4.3 m.

Type: Ship. MMSI: 308908000.

Date/timePositionNaut miles runAvg speedWind from/ knotsBaromVisibWave heightAir tempDewpointWater temp
2018-Jan-19 04:52N 17°30' W 062°23'2 5.8
2018-Jan-19 04:27N 17°28' W 062°21'3 5.8
2018-Jan-19 04:00N 17°27' W 062°19'3 5.7
2018-Jan-19 03:30N 17°25' W 062°16'3 5.6
2018-Jan-19 03:00N 17°23' W 062°14'3 5.7
2018-Jan-19 02:30N 17°21' W 062°12'3 5.6
2018-Jan-19 02:01N 17°20' W 062°10'3 5.7
2018-Jan-19 01:31N 17°18' W 062°07'3 5.8
2018-Jan-19 01:01N 17°16' W 062°05'3 5.9
2018-Jan-19 00:31N 17°14' W 062°02'3 5.9
2018-Jan-19 00:00N 17°13' W 061°60'3 6.1
2018-Jan-18 23:30N 17°11' W 061°57'3 6.5
2018-Jan-18 23:00N 17°09' W 061°55'3 6.8
2018-Jan-18 22:30N 17°07' W 061°51'0 0.8
2018-Jan-18 21:58N 17°07' W 061°51'0 0.0
2018-Jan-18 21:28N 17°07' W 061°51'0 0.0
2018-Jan-18 20:59N 17°07' W 061°51'0 0.0
2018-Jan-18 20:29N 17°07' W 061°51'0 0.0
2018-Jan-18 19:59N 17°07' W 061°51'0 0.0
2018-Jan-18 19:30N 17°07' W 061°51'0 0.0
2018-Jan-18 19:00N 17°07' W 061°51'0 0.0
2018-Jan-18 18:30N 17°07' W 061°51'0 0.0
2018-Jan-18 17:55N 17°07' W 061°51'0 0.0
2018-Jan-18 17:28N 17°07' W 061°51'0 0.0
2018-Jan-18 16:58N 17°07' W 061°51'0 0.0
2018-Jan-18 16:29N 17°07' W 061°51'0 0.0
2018-Jan-18 15:59N 17°07' W 061°51'0 0.0
2018-Jan-18 15:29N 17°07' W 061°51'0 0.0
2018-Jan-18 15:00N 17°07' W 061°51'0 0.0
2018-Jan-18 14:30N 17°07' W 061°51'0 0.0
2018-Jan-18 14:00N 17°07' W 061°51'0 0.0
2018-Jan-18 13:28N 17°07' W 061°51'0 0.0
2018-Jan-18 12:58N 17°07' W 061°51'0 0.0
2018-Jan-18 12:28N 17°07' W 061°51'0 0.2
2018-Jan-18 12:01N 17°07' W 061°51'3 5.4
2018-Jan-18 11:30N 17°08' W 061°54'4 7.9
2018-Jan-18 11:01N 17°11' W 061°57'4 8.4
2018-Jan-18 10:31N 17°13' W 062°00'4 8.4
2018-Jan-18 10:00N 17°16' W 062°04'4 8.4
2018-Jan-18 09:30N 17°18' W 062°07'4 8.6
2018-Jan-18 09:00N 17°21' W 062°11'5 9.1
2018-Jan-18 08:31N 17°24' W 062°15'5 9.7
2018-Jan-18 08:00N 17°27' W 062°19'5 9.7
2018-Jan-18 07:30N 17°30' W 062°23'5 9.8
2018-Jan-18 07:00N 17°33' W 062°27'5 9.7
2018-Jan-18 06:29N 17°36' W 062°31'  
2018-Jan-12 14:59N 17°07' W 061°51'0 0.0
2018-Jan-12 14:30N 17°07' W 061°51'0 0.3
2018-Jan-12 14:01N 17°07' W 061°51'2 4.4
2018-Jan-12 13:31N 17°08' W 061°53'510.7
2018-Jan-12 13:00N 17°04' W 061°57'611.6
2018-Jan-12 12:30N 16°60' W 061°53'611.2
2018-Jan-12 12:01N 16°60' W 061°47'3 5.7
2018-Jan-12 11:31N 16°57' W 061°47'5 9.2
2018-Jan-12 11:01N 16°53' W 061°48'5 9.1
2018-Jan-12 10:31N 16°48' W 061°49'5 9.1
2018-Jan-12 10:00N 16°44' W 061°50'4 9.0
2018-Jan-12 09:30N 16°39' W 061°51'5 9.2
2018-Jan-12 09:01N 16°35' W 061°51'5 9.1
2018-Jan-12 08:30N 16°30' W 061°51'4 8.7
2018-Jan-12 08:00N 16°26' W 061°51'4 8.8
2018-Jan-12 07:30N 16°21' W 061°51'4 8.9
2018-Jan-12 07:00N 16°17' W 061°51'5 9.1
2018-Jan-12 06:30N 16°12' W 061°51'2 3.5
2018-Jan-12 06:00N 16°11' W 061°50'1 1.6
2018-Jan-12 05:30N 16°10' W 061°50'5 8.0
2018-Jan-12 04:51N 16°05' W 061°49'3 7.7
2018-Jan-12 04:28N 16°02' W 061°48'4 7.6
2018-Jan-12 04:00N 15°59' W 061°46'4 7.6
2018-Jan-12 03:29N 15°56' W 061°43'1 0.1
2018-Jan-11 10:40N 15°55' W 061°43'1 6.6
2018-Jan-11 10:31N 15°56' W 061°43'3 6.8
2018-Jan-11 10:00N 15°58' W 061°46'3 6.9
2018-Jan-11 09:30N 16°01' W 061°48'7 7.0
2018-Jan-11 08:34N 16°06' W 061°53'0 7.5
2018-Jan-11 08:30N 16°06' W 061°53'6 7.6
2018-Jan-11 07:46N 16°11' W 061°57'2 7.5
2018-Jan-11 07:29N 16°12' W 061°58'4 7.5
2018-Jan-11 07:00N 16°15' W 062°00'4 8.6
2018-Jan-11 06:31N 16°18' W 062°04'4 8.5
2018-Jan-11 06:00N 16°21' W 062°06'4 8.4
2018-Jan-11 05:30N 16°24' W 062°09'4 8.3
2018-Jan-11 05:01N 16°27' W 062°12'4 7.8
2018-Jan-11 04:31N 16°30' W 062°15'4 7.7
2018-Jan-11 04:00N 16°33' W 062°18'4 6.9
2018-Jan-11 03:30N 16°36' W 062°20'4 7.2
2018-Jan-11 03:00N 16°39' W 062°22'4 7.3
2018-Jan-11 02:31N 16°42' W 062°25'4 7.5
2018-Jan-11 02:01N 16°45' W 062°27'10 7.6
2018-Jan-11 00:41N 16°53' W 062°33'2 7.9
2018-Jan-11 00:27N 16°54' W 062°34'4 7.9
2018-Jan-10 23:57N 16°57' W 062°36'16 0.6
2018-Jan-09 22:48N 17°13' W 062°41'3 9.0
2018-Jan-09 22:27N 17°16' W 062°42'3 0.2
2018-Jan-09 11:47N 17°16' W 062°44'12 2.6
2018-Jan-09 07:03N 17°25' W 062°54'110.2
2018-Jan-09 07:00N 17°25' W 062°54'10 9.0
2018-Jan-09 05:53N 17°35' W 062°57'3 7.0
2018-Jan-09 05:30N 17°37' W 062°58'4 7.2
2018-Jan-09 04:59N 17°40' W 063°00'  

Dump ship's entire track history